Hlavní strana
METAR-TAF:

METAR-TAF

Letiště :

Mezinárodní letiště El-Aríš

Al-Ariš, Egypt

zeměpisná šířka: 31-05N, zeměpisná délka: 033-49E, výška: 31 m

METAR: chybějící

Čas: 10:20 (08:20 UTC)

Předpověď počasí

Zpráva byla vytvořena před 3 hodinami a 20 minutami, v 05:00 UTC
Předpověď platná od 11 v 06 UTC do 12 v 12 UTC
Jižní vítr 9 kt
Viditelnost 10 km a více
Oblačno až skoro zataženo ve výšce 2000 ft
Dočasný
od 11 v 06 UTC do 11 v 18 UTC
Viditelnost: 6000 m
déšť

TAF: HEAR 110500Z 1106/1212 18009KT 9999 BKN020 TEMPO 1106/1118 6000 RA

Stav a předpovědi počasí z více než 4 000 letišť (zprávy METAR a TAF).

Červené a žluté tečky na mapě představují dostupné meteorologické stanice.

Když kurzor umístíte na tečku, zobrazí se název stanice.

Pak kliknutím zobrazíte stav a předpověď počasí.

Chcete-li změnit mapu, kliknutím na zelené tlačítko se znaménkem +mapu přiblížíte, kliknutím na zelené tlačítko se znaménkem – mapu oddálíte a kliknutím na zelené šipky přejdete na sousední mapy.


METAR-TAF: